OBBI/BAH METAR and TAF weather

Enter ICAO airport designator
Station Type Date Time Source
OBBI METAR 2023/01/30 10:00 UTC NOAA

OBBI 301000Z 18006KT 130V230 CAVOK 23/08 Q1016 NOSIG


Station Type Date Time Source
OBBI Decoded METAR 2023/01/30 10:00 UTC NOAA

Bahrain International Airport , Bahrain (OBBI) 26-16N 050-39E 2M
Jan 30, 2023 - 05:00 AM EST / 2023.01.30 1000 UTC
Wind: from the S (180 degrees) at 7 MPH (6 KT) (direction variable):0
Visibility: greater than 7 mile(s):0
Temperature: 73 F (23 C)
Dew Point: 46 F (8 C)
Relative Humidity: 38%
Pressure (altimeter): 30.00 in. Hg (1016 hPa)
ob: OBBI 301000Z 18006KT 130V230 CAVOK 23/08 Q1016 NOSIG
cycle: 10

Station Type Date Time Source
OBBI TAF 2023/01/30 12:03 UTC NOAA

TAF TAF OBBI 301100Z 3012/3118 18012KT CAVOK
BECMG 3106/3108 18015G25KT

Example: see airport list